createdAt,value
2022-10-06T00:02:19.185Z,2.78
2022-10-06T00:04:47.194Z,2.63
2022-10-06T00:07:15.155Z,2.67
2022-10-06T00:09:42.185Z,2.55
2022-10-06T00:12:09.330Z,2.70
2022-10-06T00:14:36.622Z,2.30
2022-10-06T00:17:03.054Z,2.47
2022-10-06T00:19:29.532Z,2.30
2022-10-06T00:21:55.946Z,2.05
2022-10-06T00:24:22.416Z,2.30
2022-10-06T00:26:48.912Z,2.33
2022-10-06T00:29:15.363Z,2.35
2022-10-06T00:31:41.914Z,2.25
2022-10-06T00:34:08.480Z,3.22
2022-10-06T00:36:34.885Z,3.50
2022-10-06T00:39:01.459Z,3.20
2022-10-06T00:41:27.968Z,2.38
2022-10-06T00:43:59.364Z,2.15
2022-10-06T00:46:34.127Z,2.35
2022-10-06T00:49:22.405Z,2.55
2022-10-06T00:52:04.301Z,2.83
2022-10-06T00:54:33.546Z,2.78
2022-10-06T00:57:00.204Z,2.55
2022-10-06T00:59:26.666Z,3.15
2022-10-06T01:02:11.628Z,3.03
2022-10-06T01:04:45.068Z,2.70
2022-10-06T01:07:11.955Z,3.10
2022-10-06T01:09:38.731Z,2.60
2022-10-06T01:12:08.047Z,3.17
2022-10-06T01:14:37.452Z,3.13
2022-10-06T01:17:14.115Z,3.40
2022-10-06T01:19:54.210Z,3.50
2022-10-06T01:22:37.643Z,3.10
2022-10-06T01:25:06.279Z,2.75
2022-10-06T01:27:34.831Z,2.85
2022-10-06T01:30:01.887Z,3.22
2022-10-06T01:32:38.814Z,3.45
2022-10-06T01:35:07.200Z,3.22
2022-10-06T01:37:34.024Z,3.00
2022-10-06T01:40:00.522Z,2.85
2022-10-06T01:42:27.057Z,12.23
2022-10-06T01:44:53.483Z,4.55
2022-10-06T01:47:19.969Z,3.17
2022-10-06T01:49:46.406Z,6.30
2022-10-06T01:52:13.323Z,3.38
2022-10-06T01:54:39.832Z,3.05
2022-10-06T01:57:08.273Z,3.25
2022-10-06T01:59:34.971Z,3.58
2022-10-06T02:02:01.622Z,2.75
2022-10-06T02:04:28.386Z,3.50
2022-10-06T02:06:55.544Z,6.85
2022-10-06T02:09:23.271Z,3.08
2022-10-06T02:11:50.484Z,8.45
2022-10-06T02:14:18.058Z,3.35
2022-10-06T02:16:45.241Z,4.22
2022-10-06T02:19:12.019Z,4.55
2022-10-06T02:21:38.911Z,3.42
2022-10-06T02:24:05.677Z,3.17
2022-10-06T02:26:32.397Z,3.22
2022-10-06T02:28:58.947Z,3.42
2022-10-06T02:31:25.426Z,3.33
2022-10-06T02:33:52.018Z,5.70
2022-10-06T02:36:18.774Z,2.80
2022-10-06T02:38:45.443Z,4.63
2022-10-06T02:41:11.980Z,4.95
2022-10-06T02:43:38.484Z,6.25
2022-10-06T02:46:08.102Z,3.20
2022-10-06T02:48:34.996Z,3.00
2022-10-06T02:51:16.017Z,3.15
2022-10-06T02:53:44.123Z,3.45
2022-10-06T02:56:15.933Z,3.58
2022-10-06T02:58:43.599Z,3.13
2022-10-06T03:01:26.583Z,3.30
2022-10-06T03:03:53.126Z,3.63
2022-10-06T03:06:25.812Z,3.17
2022-10-06T03:08:54.961Z,3.45
2022-10-06T03:11:24.306Z,4.32
2022-10-06T03:13:51.812Z,3.53
2022-10-06T03:16:25.683Z,3.30
2022-10-06T03:18:53.611Z,3.70
2022-10-06T03:21:22.179Z,3.55
2022-10-06T03:23:50.969Z,3.25
2022-10-06T03:26:20.547Z,3.15
2022-10-06T03:28:47.625Z,3.70
2022-10-06T03:31:15.462Z,3.67
2022-10-06T03:33:42.071Z,3.30
2022-10-06T03:36:12.291Z,4.18
2022-10-06T03:38:40.244Z,4.30
2022-10-06T03:41:21.932Z,4.60
2022-10-06T03:43:50.737Z,3.58
2022-10-06T03:46:20.141Z,5.25
2022-10-06T03:48:47.766Z,4.57
2022-10-06T03:51:20.135Z,4.38
2022-10-06T03:53:48.939Z,3.85
2022-10-06T03:56:17.964Z,3.85
2022-10-06T03:58:48.523Z,4.22
2022-10-06T04:01:25.982Z,4.18
2022-10-06T04:03:57.563Z,4.28
2022-10-06T04:06:25.387Z,4.65
2022-10-06T04:08:52.978Z,5.57
2022-10-06T04:11:21.423Z,4.35
2022-10-06T04:13:52.137Z,4.20
2022-10-06T04:16:24.167Z,4.13
2022-10-06T04:18:52.802Z,5.30
2022-10-06T04:21:20.556Z,4.53
2022-10-06T04:23:47.484Z,4.18
2022-10-06T04:26:17.045Z,4.07
2022-10-06T04:28:44.922Z,3.13
2022-10-06T04:31:14.880Z,3.80
2022-10-06T04:33:42.375Z,3.85
2022-10-06T04:36:10.483Z,4.38
2022-10-06T04:38:37.075Z,3.95
2022-10-06T04:41:05.673Z,4.82
2022-10-06T04:43:32.137Z,4.03
2022-10-06T04:45:59.918Z,4.13
2022-10-06T04:48:28.043Z,3.88
2022-10-06T04:50:59.737Z,4.80
2022-10-06T04:53:27.518Z,4.57
2022-10-06T04:56:04.931Z,3.78
2022-10-06T04:58:35.269Z,4.80
2022-10-06T05:01:02.460Z,4.47
2022-10-06T05:03:30.034Z,4.63
2022-10-06T05:06:08.269Z,3.90
2022-10-06T05:08:35.328Z,3.85
2022-10-06T05:11:04.339Z,4.30
2022-10-06T05:13:31.596Z,4.40
2022-10-06T05:16:02.055Z,4.25
2022-10-06T05:18:30.137Z,4.13
2022-10-06T05:21:06.654Z,4.40
2022-10-06T05:23:36.424Z,4.50
2022-10-06T05:26:03.646Z,4.63
2022-10-06T05:28:32.058Z,4.78
2022-10-06T05:31:03.834Z,3.90
2022-10-06T05:33:32.877Z,4.32
2022-10-06T05:36:02.071Z,4.47
2022-10-06T05:38:29.549Z,3.83
2022-10-06T05:41:12.780Z,4.35
2022-10-06T05:43:40.222Z,4.55
2022-10-06T05:46:10.744Z,4.18
2022-10-06T05:48:37.178Z,4.03
2022-10-06T05:51:06.420Z,3.88
2022-10-06T05:53:34.308Z,4.28
2022-10-06T05:56:06.383Z,3.63
2022-10-06T05:58:33.606Z,3.85
2022-10-06T06:01:18.929Z,4.05
2022-10-06T06:03:52.237Z,3.83
2022-10-06T06:06:20.426Z,3.97
2022-10-06T06:08:48.267Z,3.80
2022-10-06T06:11:14.929Z,3.85
2022-10-06T06:13:41.375Z,4.35
2022-10-06T06:16:13.545Z,3.40
2022-10-06T06:18:40.882Z,3.22
2022-10-06T06:21:09.451Z,2.88
2022-10-06T06:23:46.820Z,3.03
2022-10-06T06:26:27.428Z,2.47
2022-10-06T06:28:56.346Z,2.85
2022-10-06T06:31:26.675Z,2.35
2022-10-06T06:33:58.317Z,2.65
2022-10-06T06:36:28.532Z,3.22
2022-10-06T06:38:56.615Z,3.17
2022-10-06T06:41:27.051Z,2.70
2022-10-06T06:43:54.494Z,2.30
2022-10-06T06:46:25.761Z,2.63
2022-10-06T06:48:55.887Z,2.20
2022-10-06T06:51:24.150Z,2.60
2022-10-06T06:53:52.006Z,2.33
2022-10-06T06:56:19.171Z,2.28
2022-10-06T06:58:49.091Z,2.40
2022-10-06T07:01:18.408Z,2.50
2022-10-06T07:03:57.537Z,4.88
2022-10-06T07:06:29.422Z,2.00
2022-10-06T07:08:58.262Z,1.52
2022-10-06T07:11:27.533Z,2.47
2022-10-06T07:14:01.358Z,2.10
2022-10-06T07:16:48.797Z,2.40
2022-10-06T07:19:35.852Z,1.85
2022-10-06T07:22:27.073Z,2.30
2022-10-06T07:25:07.155Z,2.72
2022-10-06T07:27:47.157Z,2.08
2022-10-06T07:30:18.999Z,2.10
2022-10-06T07:32:46.728Z,1.63
2022-10-06T07:35:13.568Z,2.75
2022-10-06T07:37:40.655Z,2.05
2022-10-06T07:40:08.585Z,2.15
2022-10-06T07:42:47.860Z,2.08
2022-10-06T07:45:41.788Z,1.70
2022-10-06T07:48:14.518Z,3.10
2022-10-06T07:50:42.988Z,2.08
2022-10-06T07:53:09.501Z,2.75
2022-10-06T07:55:39.745Z,2.03
2022-10-06T07:58:18.252Z,1.63
2022-10-06T08:00:46.192Z,2.20
2022-10-06T08:03:18.066Z,2.30
2022-10-06T08:05:50.084Z,2.25
2022-10-06T08:08:16.848Z,2.03
2022-10-06T08:10:44.311Z,3.47
2022-10-06T08:13:10.784Z,2.00
2022-10-06T08:15:37.429Z,2.20
2022-10-06T08:18:12.252Z,1.80
2022-10-06T08:20:48.294Z,1.30
2022-10-06T08:23:14.768Z,1.60
2022-10-06T08:25:43.302Z,1.98
2022-10-06T08:28:11.190Z,1.88
2022-10-06T08:30:37.962Z,2.50
2022-10-06T08:33:05.821Z,1.83
2022-10-06T08:35:33.077Z,2.25
2022-10-06T08:37:59.690Z,1.83
2022-10-06T08:40:27.439Z,1.92
2022-10-06T08:42:56.842Z,1.58
2022-10-06T08:45:29.661Z,2.72
2022-10-06T08:48:00.378Z,2.70
2022-10-06T08:50:29.383Z,2.90
2022-10-06T08:53:20.918Z,1.23
2022-10-06T08:56:22.283Z,2.17
2022-10-06T08:58:54.598Z,1.88
2022-10-06T09:01:27.376Z,1.52
2022-10-06T09:04:01.952Z,1.65
2022-10-06T09:07:07.814Z,1.45
2022-10-06T09:09:39.799Z,1.60
2022-10-06T09:12:27.547Z,2.22
2022-10-06T09:15:14.290Z,2.63
2022-10-06T09:17:50.365Z,1.98
2022-10-06T09:20:34.174Z,2.08
2022-10-06T09:23:03.383Z,2.08
2022-10-06T09:25:30.748Z,2.17
2022-10-06T09:27:59.755Z,2.58
2022-10-06T09:30:27.218Z,2.67
2022-10-06T09:33:02.724Z,1.48
2022-10-06T09:35:31.285Z,2.42
2022-10-06T09:38:08.782Z,1.58
2022-10-06T09:40:51.185Z,3.10
2022-10-06T09:43:28.741Z,2.60
2022-10-06T09:46:16.651Z,2.10
2022-10-06T09:48:43.087Z,2.30
2022-10-06T09:51:16.675Z,1.98
2022-10-06T09:53:44.796Z,2.55
2022-10-06T09:56:19.338Z,1.98
2022-10-06T09:58:57.301Z,1.83
2022-10-06T10:01:26.552Z,2.03
2022-10-06T10:04:20.623Z,1.85
2022-10-06T10:06:47.867Z,2.03
2022-10-06T10:09:20.619Z,1.90
2022-10-06T10:12:26.208Z,2.42
2022-10-06T10:15:04.490Z,2.00
2022-10-06T10:18:05.367Z,1.70
2022-10-06T10:20:52.222Z,1.40
2022-10-06T10:23:30.132Z,1.67
2022-10-06T10:26:09.605Z,1.75
2022-10-06T10:28:52.804Z,2.30
2022-10-06T10:31:48.281Z,2.30
2022-10-06T10:34:32.781Z,1.77
2022-10-06T10:37:21.896Z,2.13
2022-10-06T10:40:01.810Z,2.63
2022-10-06T10:42:37.306Z,1.50
2022-10-06T10:45:11.182Z,1.65
2022-10-06T10:47:41.951Z,2.25
2022-10-06T10:50:20.367Z,1.63
2022-10-06T10:52:50.284Z,1.63
2022-10-06T10:55:23.279Z,1.45
2022-10-06T10:57:52.051Z,1.77
2022-10-06T11:00:28.502Z,2.42
2022-10-06T11:03:01.002Z,1.90
2022-10-06T11:05:58.335Z,2.17
2022-10-06T11:08:42.984Z,2.03
2022-10-06T11:11:46.488Z,2.50
2022-10-06T11:14:31.187Z,3.47
2022-10-06T11:17:27.623Z,2.67
2022-10-06T11:20:33.449Z,2.15
2022-10-06T11:23:22.286Z,1.73
2022-10-06T11:26:15.361Z,1.83
2022-10-06T11:28:53.956Z,1.73
2022-10-06T11:31:26.384Z,1.92
2022-10-06T11:33:54.934Z,1.38
2022-10-06T11:36:56.737Z,1.52
2022-10-06T11:39:52.248Z,1.50
2022-10-06T11:42:37.014Z,2.58
2022-10-06T11:45:15.209Z,1.90
2022-10-06T11:48:05.849Z,2.38
2022-10-06T11:50:42.972Z,1.50
2022-10-06T11:53:37.311Z,2.95
2022-10-06T11:56:33.100Z,1.70
2022-10-06T11:58:59.433Z,1.20
2022-10-06T12:01:32.359Z,1.80
2022-10-06T12:04:07.560Z,1.58
2022-10-06T12:06:43.270Z,1.52
2022-10-06T12:09:33.651Z,1.00
2022-10-06T12:12:27.551Z,2.15
2022-10-06T12:16:32.539Z,1.55
2022-10-06T12:17:56.778Z,1.63
2022-10-06T12:20:33.155Z,1.40
2022-10-06T12:23:08.465Z,1.75
2022-10-06T12:26:02.926Z,1.10
2022-10-06T12:28:40.842Z,2.33
2022-10-06T12:31:29.054Z,1.25
2022-10-06T12:33:55.560Z,1.80
2022-10-06T12:36:32.089Z,1.65
2022-10-06T12:39:02.299Z,1.95
2022-10-06T12:42:06.571Z,2.28
2022-10-06T12:44:43.002Z,1.20
2022-10-06T12:47:30.132Z,1.35
2022-10-06T12:50:03.238Z,1.80
2022-10-06T12:52:51.488Z,2.13
2022-10-06T12:55:39.542Z,1.50
2022-10-06T12:58:07.944Z,1.58
2022-10-06T13:00:41.086Z,2.45
2022-10-06T13:03:15.287Z,1.60
2022-10-06T13:05:41.895Z,1.40
2022-10-06T13:08:25.058Z,1.95
2022-10-06T13:11:10.021Z,1.55
2022-10-06T13:13:38.316Z,1.65
2022-10-06T13:16:04.845Z,1.27
2022-10-06T13:18:32.866Z,2.15
2022-10-06T13:21:00.970Z,1.67
2022-10-06T13:23:30.637Z,1.50
2022-10-06T13:25:58.454Z,1.35
2022-10-06T13:28:45.044Z,1.70
2022-10-06T13:31:30.391Z,1.67
2022-10-06T13:34:09.364Z,1.52
2022-10-06T13:36:57.490Z,1.17
2022-10-06T13:39:26.861Z,1.40
2022-10-06T13:42:01.372Z,1.80
2022-10-06T13:44:39.870Z,1.73
2022-10-06T13:47:19.612Z,1.90
2022-10-06T13:49:53.441Z,1.42
2022-10-06T13:54:56.429Z,1.20
2022-10-06T13:57:43.250Z,1.30
2022-10-06T14:00:28.788Z,1.55
2022-10-06T14:03:08.888Z,1.35
2022-10-06T14:05:40.867Z,1.50
2022-10-06T14:08:10.101Z,1.42
2022-10-06T14:10:49.785Z,1.85
2022-10-06T14:13:28.716Z,1.67
2022-10-06T14:16:17.966Z,2.55
2022-10-06T14:18:46.955Z,1.80
2022-10-06T14:21:31.449Z,1.30
2022-10-06T14:23:59.295Z,1.13
2022-10-06T14:26:28.698Z,1.50
2022-10-06T14:28:55.957Z,1.38
2022-10-06T14:31:25.467Z,1.10
2022-10-06T14:33:53.614Z,2.30
2022-10-06T14:36:25.684Z,1.70
2022-10-06T14:38:52.270Z,1.70
2022-10-06T14:41:20.120Z,1.48
2022-10-06T14:43:47.578Z,1.42
2022-10-06T14:46:15.476Z,1.42
2022-10-06T14:48:42.010Z,1.90
2022-10-06T14:51:09.462Z,1.60
2022-10-06T14:53:38.762Z,1.13
2022-10-06T14:56:10.723Z,1.52
2022-10-06T14:58:38.951Z,1.27
2022-10-06T15:01:07.612Z,1.60
2022-10-06T15:03:37.331Z,1.75
2022-10-06T15:06:25.183Z,1.52
2022-10-06T15:08:53.214Z,1.80
2022-10-06T15:11:21.333Z,1.55
2022-10-06T15:13:48.520Z,1.40
2022-10-06T15:16:16.203Z,1.30
2022-10-06T15:18:42.990Z,1.50
2022-10-06T15:21:11.376Z,1.55
2022-10-06T15:23:38.879Z,1.38
2022-10-06T15:26:24.906Z,2.22
2022-10-06T15:29:00.583Z,1.73
2022-10-06T15:31:38.596Z,1.40
2022-10-06T15:34:07.595Z,1.73
2022-10-06T15:36:36.384Z,1.70
2022-10-06T15:39:09.472Z,2.05
2022-10-06T15:41:37.217Z,1.93
2022-10-06T15:44:05.101Z,1.33
2022-10-06T15:46:37.149Z,0.95
2022-10-06T15:49:04.948Z,2.20
2022-10-06T15:51:37.204Z,6.57
2022-10-06T15:54:04.874Z,4.13
2022-10-06T15:56:32.037Z,1.77
2022-10-06T15:58:59.432Z,2.20
2022-10-06T16:01:32.563Z,1.20
2022-10-06T16:04:05.379Z,1.50
2022-10-06T16:06:49.477Z,1.63
2022-10-06T16:09:21.172Z,1.52
2022-10-06T16:11:48.159Z,1.75
2022-10-06T16:14:15.561Z,2.00
2022-10-06T16:16:43.778Z,2.97
2022-10-06T16:19:10.956Z,2.05
2022-10-06T16:21:37.749Z,1.50
2022-10-06T16:24:04.281Z,1.83
2022-10-06T16:26:32.523Z,2.25
2022-10-06T16:28:58.987Z,1.95
2022-10-06T16:31:25.511Z,1.95
2022-10-06T16:33:52.868Z,1.80
2022-10-06T16:36:19.716Z,2.05
2022-10-06T16:38:49.837Z,2.00
2022-10-06T16:41:17.038Z,1.75
2022-10-06T16:43:44.990Z,2.33
2022-10-06T16:46:14.606Z,2.15
2022-10-06T16:48:43.991Z,2.45
2022-10-06T16:51:14.960Z,1.80
2022-10-06T16:53:42.515Z,1.83
2022-10-06T16:56:13.988Z,2.00
2022-10-06T16:58:45.906Z,2.35
2022-10-06T17:01:14.153Z,2.05
2022-10-06T17:03:41.646Z,3.03
2022-10-06T17:06:14.581Z,2.33
2022-10-06T17:08:41.655Z,2.70
2022-10-06T17:11:16.760Z,2.53
2022-10-06T17:13:45.498Z,2.78
2022-10-06T17:16:18.018Z,2.38
2022-10-06T17:18:49.403Z,2.72
2022-10-06T17:21:43.362Z,2.40
2022-10-06T17:24:04.591Z,2.83
2022-10-06T17:26:33.962Z,2.20
2022-10-06T17:29:02.935Z,1.92
2022-10-06T17:31:37.913Z,2.22
2022-10-06T17:34:08.850Z,8.18
2022-10-06T17:36:37.964Z,4.90
2022-10-06T17:39:05.930Z,2.65
2022-10-06T17:41:35.360Z,2.55
2022-10-06T17:44:07.879Z,2.42
2022-10-06T17:46:38.005Z,1.98
2022-10-06T17:49:10.226Z,2.42
2022-10-06T17:51:38.875Z,3.00
2022-10-06T17:54:07.487Z,3.30
2022-10-06T17:56:35.037Z,3.63
2022-10-06T17:59:07.384Z,4.65
2022-10-06T18:01:35.832Z,4.20
2022-10-06T18:04:04.451Z,5.18
2022-10-06T18:06:34.420Z,4.20
2022-10-06T18:09:02.399Z,4.00
2022-10-06T18:11:38.477Z,5.55
2022-10-06T18:14:09.018Z,5.43
2022-10-06T18:16:42.284Z,6.45
2022-10-06T18:19:11.772Z,6.55
2022-10-06T18:21:39.603Z,6.20
2022-10-06T18:24:13.321Z,6.20
2022-10-06T18:26:41.893Z,5.65
2022-10-06T18:29:10.370Z,5.15
2022-10-06T18:31:38.654Z,5.63
2022-10-06T18:36:52.430Z,5.60
2022-10-06T18:39:19.035Z,5.35
2022-10-06T18:41:46.325Z,5.38
2022-10-06T18:44:12.804Z,6.50
2022-10-06T18:46:57.960Z,5.65
2022-10-06T18:49:25.279Z,4.95
2022-10-06T18:51:58.053Z,6.00
2022-10-06T18:54:30.493Z,4.47
2022-10-06T18:56:57.443Z,4.60
2022-10-06T18:59:27.485Z,5.53
2022-10-06T19:01:56.581Z,4.93
2022-10-06T19:04:23.820Z,4.90
2022-10-06T19:06:53.460Z,5.25
2022-10-06T19:09:23.266Z,4.72
2022-10-06T19:11:53.276Z,4.63
2022-10-06T19:14:25.678Z,4.45
2022-10-06T19:17:02.037Z,5.57
2022-10-06T19:19:30.003Z,5.57
2022-10-06T19:22:02.743Z,4.57
2022-10-06T19:24:40.598Z,4.78
2022-10-06T19:27:11.331Z,4.53
2022-10-06T19:29:45.905Z,4.28
2022-10-06T19:32:16.846Z,4.32
2022-10-06T19:34:44.557Z,4.55
2022-10-06T19:37:15.583Z,4.30
2022-10-06T19:39:45.349Z,5.03
2022-10-06T19:42:32.261Z,4.75
2022-10-06T19:44:58.653Z,5.35
2022-10-06T19:47:25.296Z,5.38
2022-10-06T19:49:52.342Z,5.05
2022-10-06T19:52:20.928Z,4.60
2022-10-06T19:54:47.599Z,4.88
2022-10-06T19:57:14.049Z,5.50
2022-10-06T19:59:40.590Z,5.43
2022-10-06T20:02:09.663Z,5.68
2022-10-06T20:04:36.642Z,5.38
2022-10-06T20:07:03.709Z,5.78
2022-10-06T20:13:24.100Z,4.88
2022-10-06T20:15:50.441Z,4.95
2022-10-06T20:18:19.311Z,6.22
2022-10-06T20:20:56.272Z,6.05
2022-10-06T20:23:23.567Z,7.47
2022-10-06T20:25:49.938Z,7.03
2022-10-06T20:28:16.316Z,6.57
2022-10-06T20:30:49.579Z,6.63
2022-10-06T20:33:16.571Z,5.78
2022-10-06T20:35:43.037Z,5.60
2022-10-06T20:38:09.606Z,6.45
2022-10-06T20:40:49.055Z,5.07
2022-10-06T20:43:15.502Z,5.05
2022-10-06T20:45:41.919Z,5.50
2022-10-06T20:48:08.303Z,4.35
2022-10-06T20:50:34.678Z,4.13
2022-10-06T20:53:01.176Z,5.18
2022-10-06T20:55:27.536Z,5.18
2022-10-06T20:57:54.822Z,4.40
2022-10-06T21:00:24.087Z,4.55
2022-10-06T21:02:50.915Z,4.97
2022-10-06T21:05:17.434Z,4.25
2022-10-06T21:07:44.234Z,4.97
2022-10-06T21:10:11.143Z,4.07
2022-10-06T21:12:37.672Z,4.25
2022-10-06T21:15:04.540Z,5.32
2022-10-06T21:17:31.210Z,3.85
2022-10-06T21:19:57.718Z,4.93
2022-10-06T21:22:24.230Z,4.90
2022-10-06T21:24:50.724Z,5.13
2022-10-06T21:27:19.015Z,5.15
2022-10-06T21:29:45.598Z,4.70
2022-10-06T21:32:12.132Z,4.35
2022-10-06T21:34:40.156Z,4.93
2022-10-06T21:37:06.672Z,4.97
2022-10-06T21:39:33.165Z,4.50
2022-10-06T21:41:59.715Z,4.80
2022-10-06T21:44:26.249Z,4.40
2022-10-06T21:46:56.217Z,5.05
2022-10-06T21:49:24.688Z,4.85
2022-10-06T21:51:54.238Z,5.03
2022-10-06T21:54:22.075Z,4.00
2022-10-06T21:56:49.405Z,5.13
2022-10-06T21:59:15.980Z,4.03
2022-10-06T22:01:44.422Z,4.53
2022-10-06T22:04:12.901Z,5.07
2022-10-06T22:06:40.002Z,4.22
2022-10-06T22:09:08.318Z,4.35
2022-10-06T22:11:37.593Z,4.68
2022-10-06T22:14:07.747Z,4.63
2022-10-06T22:16:35.832Z,4.95
2022-10-06T22:19:05.390Z,3.72
2022-10-06T22:21:34.575Z,4.30
2022-10-06T22:24:07.709Z,4.43
2022-10-06T22:26:39.370Z,4.30
2022-10-06T22:29:11.719Z,4.10
2022-10-06T22:31:44.673Z,3.95
2022-10-06T22:34:13.940Z,4.65
2022-10-06T22:36:40.676Z,4.25
2022-10-06T22:39:10.433Z,4.10
2022-10-06T22:41:37.935Z,3.95
2022-10-06T22:44:04.569Z,4.47
2022-10-06T22:46:33.477Z,4.05
2022-10-06T22:49:00.096Z,3.95
2022-10-06T22:51:26.826Z,5.10
2022-10-06T22:53:58.027Z,4.38
2022-10-06T22:56:26.364Z,4.13
2022-10-06T22:58:52.940Z,3.85
2022-10-06T23:01:19.692Z,4.60
2022-10-06T23:03:47.545Z,3.42
2022-10-06T23:06:16.016Z,4.03
2022-10-06T23:08:42.716Z,4.35
2022-10-06T23:11:12.970Z,3.72
2022-10-06T23:13:40.070Z,4.40
2022-10-06T23:16:09.204Z,4.25
2022-10-06T23:18:38.458Z,4.60
2022-10-06T23:21:05.217Z,5.07
2022-10-06T23:23:32.265Z,4.88
2022-10-06T23:26:11.191Z,4.40
2022-10-06T23:28:38.032Z,3.97
2022-10-06T23:31:07.009Z,4.05
2022-10-06T23:33:34.659Z,3.97
2022-10-06T23:36:04.472Z,3.70
2022-10-06T23:38:31.132Z,4.00
2022-10-06T23:40:58.131Z,3.97
2022-10-06T23:43:24.611Z,4.00
2022-10-06T23:45:51.181Z,3.45
2022-10-06T23:48:18.048Z,3.67
2022-10-06T23:50:55.487Z,3.83
2022-10-06T23:53:21.982Z,3.70
2022-10-06T23:55:48.494Z,3.78
2022-10-06T23:58:14.978Z,4.10
